Time;durP1;ratioP1;P1;durP2;ratioP2;P2;SDS_P1;SDS_P2;PMS_P1;PMS_P2;Temp;Humidity;BMP_temperature;BMP_pressure;BME280_temperature;BME280_humidity;BME280_pressure;Samples;Min_cycle;Max_cycle;Signal;HPM_P1;HPM_P2
2021/11/15 07:12:18;;;;;;;75.57;38.02;;;;;;;3.33;85.92;101502.55;2014922;86;21114;-75
2021/11/15 07:15:20;;;;;;;72.45;34.58;;;;;;;3.36;85.92;101508.94;2020981;86;21050;-76
2021/11/15 07:18:21;;;;;;;68.17;36.73;;;;;;;3.40;85.91;101503.04;2021678;86;21076;-76
2021/11/15 07:21:24;;;;;;;75.83;36.58;;;;;;;3.42;85.84;101500.34;2015127;86;21470;-76
2021/11/15 07:24:26;;;;;;;80.75;38.08;;;;;;;3.45;85.81;101502.79;2015315;86;20982;-76
2021/11/15 07:27:27;;;;;;;76.47;36.90;;;;;;;3.47;85.78;101509.64;2019793;86;21487;-76
2021/11/15 07:30:29;;;;;;;65.50;35.52;;;;;;;3.47;85.81;101504.39;2017396;86;20980;-76
2021/11/15 07:33:31;;;;;;;74.10;38.30;;;;;;;3.50;85.76;101503.38;2020686;86;21506;-75
2021/11/15 07:36:33;;;;;;;74.60;36.95;;;;;;;3.51;85.79;101505.06;2019268;86;21011;-76
2021/11/15 07:39:42;;;;;;;71.97;35.78;;;;;;;3.52;85.80;101511.98;2019015;86;20995;-76
2021/11/15 07:42:44;;;;;;;74.10;36.00;;;;;;;3.53;85.75;101508.45;2018731;86;21514;-76
2021/11/15 07:45:46;;;;;;;76.57;37.95;;;;;;;3.54;85.74;101508.82;2017918;86;21515;-77
2021/11/15 07:48:47;;;;;;;81.28;39.40;;;;;;;3.55;85.68;101506.59;2013837;86;21087;-75
2021/11/15 07:51:49;;;;;;;78.20;37.25;;;;;;;3.56;85.67;101506.48;2019769;86;21015;-76
2021/11/15 07:54:50;;;;;;;79.55;38.78;;;;;;;3.56;85.75;101504.34;2014720;87;21041;-76
2021/11/15 07:57:52;;;;;;;81.08;39.27;;;;;;;3.55;85.68;101507.44;2021489;86;21110;-77
2021/11/15 08:00:53;;;;;;;79.00;38.23;;;;;;;3.58;85.73;101511.66;2023774;86;21086;-76
2021/11/15 08:03:55;;;;;;;78.35;38.02;;;;;;;3.59;85.69;101505.47;2019793;86;21032;-77
2021/11/15 08:06:56;;;;;;;82.82;41.08;;;;;;;3.60;85.74;101508.47;2018308;86;21038;-76
2021/11/15 08:09:58;;;;;;;76.82;37.90;;;;;;;3.61;85.73;101501.46;2020668;86;21145;-75
2021/11/15 08:13:00;;;;;;;82.17;39.60;;;;;;;3.63;85.70;101508.76;2023160;86;21575;-81
2021/11/15 08:16:01;;;;;;;73.47;36.98;;;;;;;3.65;85.65;101512.15;2011067;86;22093;-81
2021/11/15 08:19:03;;;;;;;116.15;55.50;;;;;;;3.68;85.69;101505.41;2017655;86;21006;-84
2021/11/15 08:22:05;;;;;;;80.95;40.05;;;;;;;3.70;85.68;101510.11;2016077;86;20991;-84
2021/11/15 08:25:49;;;;;;;79.27;37.85;;;;;;;3.73;85.67;101503.37;2022487;86;21399;-77
2021/11/15 08:28:50;;;;;;;73.67;37.35;;;;;;;3.75;85.61;101499.72;2012845;86;21868;-78
2021/11/15 08:31:54;;;;;;;75.37;39.92;;;;;;;3.77;85.61;101507.49;2014944;86;21570;-78
2021/11/15 08:34:58;;;;;;;82.33;42.13;;;;;;;3.81;85.62;101506.39;2016985;86;21027;-77
2021/11/15 08:38:05;;;;;;;86.95;39.18;;;;;;;3.86;85.58;101508.29;2018592;86;21027;-78
2021/11/15 08:41:07;;;;;;;79.42;40.38;;;;;;;3.89;85.52;101510.73;2016931;86;21021;-76
2021/11/15 08:44:10;;;;;;;83.67;39.98;;;;;;;3.93;85.43;101506.98;2020262;86;21088;-77
2021/11/15 08:47:12;;;;;;;86.95;43.52;;;;;;;3.94;85.37;101510.45;2016908;86;21046;-76
2021/11/15 08:50:14;;;;;;;87.37;42.23;;;;;;;3.94;85.36;101510.45;2019166;86;21026;-74
2021/11/15 08:53:15;;;;;;;90.35;42.73;;;;;;;3.95;85.38;101506.91;2020205;86;21010;-75
2021/11/15 08:56:19;;;;;;;92.40;42.65;;;;;;;3.96;85.29;101519.09;2024858;86;21588;-74
2021/11/15 08:59:21;;;;;;;84.15;41.30;;;;;;;3.93;85.30;101516.17;2017539;86;21081;-75
2021/11/15 09:02:23;;;;;;;81.45;39.98;;;;;;;3.92;85.28;101513.66;2017213;86;21037;-74
2021/11/15 09:05:25;;;;;;;80.42;38.88;;;;;;;3.91;85.35;101512.78;2015372;86;21415;-74
2021/11/15 09:08:26;;;;;;;86.40;39.18;;;;;;;3.94;85.28;101522.27;2025644;86;20971;-76
2021/11/15 09:11:28;;;;;;;80.32;41.18;;;;;;;3.94;85.27;101516.57;2015379;86;21056;-76
2021/11/15 09:14:30;;;;;;;86.80;39.75;;;;;;;3.95;85.25;101527.92;2016304;86;21058;-76
2021/11/15 09:17:32;;;;;;;84.00;40.15;;;;;;;3.96;85.25;101523.87;2019146;86;21079;-75
2021/11/15 09:20:34;;;;;;;81.90;40.38;;;;;;;3.99;85.30;101523.69;2023957;86;21066;-74
2021/11/15 09:23:39;;;;;;;104.80;48.73;;;;;;;4.01;85.27;101527.08;2018438;86;21042;-76
2021/11/15 09:26:41;;;;;;;138.82;62.08;;;;;;;4.06;85.27;101524.67;2017878;86;21060;-77
2021/11/15 09:29:47;;;;;;;85.17;43.17;;;;;;;4.07;85.26;101529.81;1982525;88;21053;-75
2021/11/15 09:32:48;;;;;;;94.00;42.23;;;;;;;4.10;85.24;101528.78;1980817;88;21154;-76
2021/11/15 09:35:51;;;;;;;83.25;40.78;;;;;;;4.10;85.18;101524.84;1967484;89;21026;-76
2021/11/15 09:38:57;;;;;;;85.15;40.25;;;;;;;4.10;85.17;101528.31;2015516;86;21002;-75
2021/11/15 09:42:03;;;;;;;82.92;40.35;;;;;;;4.12;85.16;101528.23;2014021;86;21127;-77
2021/11/15 09:45:07;;;;;;;82.53;39.73;;;;;;;4.12;85.12;101524.30;2017685;86;21563;-77
2021/11/15 09:48:09;;;;;;;81.78;39.00;;;;;;;4.12;85.14;101517.73;2015334;86;21066;-76
2021/11/15 09:51:12;;;;;;;78.87;39.27;;;;;;;4.13;85.06;101525.98;2008626;86;21004;-75
2021/11/15 09:54:15;;;;;;;77.37;35.48;;;;;;;4.15;85.09;101522.80;2014425;86;21518;-77
2021/11/15 09:57:18;;;;;;;85.62;39.23;;;;;;;4.15;85.10;101521.48;2010504;86;21523;-76
2021/11/15 10:00:23;;;;;;;91.65;42.27;;;;;;;4.17;85.08;101524.41;2009900;86;20994;-78
2021/11/15 10:03:26;;;;;;;86.78;41.80;;;;;;;4.18;85.01;101522.61;2014607;86;21023;-76
2021/11/15 10:06:28;;;;;;;91.08;41.10;;;;;;;4.20;85.04;101517.65;2014665;86;21034;-76
2021/11/15 10:09:38;;;;;;;85.80;39.18;;;;;;;4.26;85.10;101521.69;2015472;86;21086;-76
2021/11/15 10:12:40;;;;;;;91.12;43.68;;;;;;;4.27;84.92;101516.80;2018570;86;21616;-75
2021/11/15 10:16:02;;;;;;;92.10;40.35;;;;;;;4.29;84.90;101517.56;2017587;87;21033;-75
2021/11/15 10:19:08;;;;;;;90.30;41.63;;;;;;;4.31;84.89;101512.20;2020770;87;20983;-76
2021/11/15 10:22:10;;;;;;;93.20;40.65;;;;;;;4.27;84.74;101517.64;2012767;87;21627;-77
2021/11/15 10:25:12;;;;;;;102.65;43.75;;;;;;;4.26;84.76;101517.28;2017876;87;21019;-76
2021/11/15 10:28:19;;;;;;;102.90;45.03;;;;;;;4.26;84.84;101508.08;2020282;87;21113;-76
2021/11/15 10:31:35;;;;;;;100.55;42.27;;;;;;;4.30;84.87;101502.64;2018705;87;20997;-77
2021/11/15 10:34:41;;;;;;;96.63;42.67;;;;;;;4.34;84.80;101499.74;2016346;87;21588;-76
2021/11/15 10:37:44;;;;;;;96.28;42.27;;;;;;;4.36;84.84;101497.84;2018392;87;21683;-76
2021/11/15 10:40:47;;;;;;;94.20;42.88;;;;;;;4.37;84.79;101498.24;2018556;87;21533;-77
2021/11/15 10:43:58;;;;;;;99.07;43.10;;;;;;;4.39;84.83;101479.30;2014934;87;20979;-76
2021/11/15 10:47:00;;;;;;;108.75;48.40;;;;;;;4.44;84.90;101493.45;2017466;87;21038;-79
2021/11/15 10:50:21;;;;;;;114.70;51.35;;;;;;;4.47;84.77;101489.31;2015441;87;21045;-76
2021/11/15 10:53:44;;;;;;;101.45;43.90;;;;;;;4.47;84.72;101478.33;2015489;87;21072;-79
2021/11/15 10:56:43;;;;;;;91.57;42.88;;;;;;;4.51;84.73;101484.73;2023974;87;21018;-77
2021/11/15 10:59:44;;;;;;;99.90;45.50;;;;;;;4.54;84.70;101490.64;2018270;87;21490;-76
2021/11/15 11:03:07;;;;;;;90.75;41.25;;;;;;;4.57;84.73;101486.50;2016700;87;20960;-78
2021/11/15 11:06:15;;;;;;;93.80;43.35;;;;;;;4.57;84.55;101494.87;2018065;87;21010;-76
2021/11/15 11:09:36;;;;;;;90.20;41.73;;;;;;;4.59;84.60;101492.97;2020477;87;21661;-77
2021/11/15 11:12:45;;;;;;;96.45;41.50;;;;;;;4.59;84.60;101489.02;2033937;86;21077;-76
2021/11/15 11:15:49;;;;;;;99.00;45.45;;;;;;;4.62;84.55;101496.27;2045935;86;21008;-77
2021/11/15 11:19:04;;;;;;;86.65;39.92;;;;;;;4.66;84.61;101490.34;2044856;86;21616;-76
2021/11/15 11:22:37;;;;;;;95.22;42.25;;;;;;;4.67;84.46;101481.51;2046258;86;20991;-76
2021/11/15 11:25:29;;;;;;;86.25;40.00;;;;;;;4.68;84.46;101480.11;2010984;87;21056;-76
2021/11/15 11:28:35;;;;;;;97.47;43.48;;;;;;;4.72;84.48;101477.66;2012657;87;21057;-80
2021/11/15 11:31:40;;;;;;;98.27;42.80;;;;;;;4.73;84.46;101470.64;2013533;87;21073;-75
2021/11/15 11:34:43;;;;;;;97.10;42.33;;;;;;;4.76;84.47;101466.50;2011628;87;21351;-76
2021/11/15 11:37:45;;;;;;;102.35;46.15;;;;;;;4.77;84.38;101468.65;2008516;88;21006;-77
2021/11/15 11:40:47;;;;;;;95.72;41.48;;;;;;;4.78;84.35;101470.33;1978044;89;21004;-76
2021/11/15 11:43:50;;;;;;;88.35;38.92;;;;;;;4.79;84.25;101457.09;2012566;87;21026;-77
2021/11/15 11:46:54;;;;;;;90.53;40.43;;;;;;;4.80;84.29;101470.61;2009747;87;21039;-79
2021/11/15 11:49:59;;;;;;;91.67;40.50;;;;;;;4.79;84.24;101455.78;2010529;87;21125;-77
2021/11/15 11:53:09;;;;;;;98.62;42.48;;;;;;;4.84;84.32;101458.09;2044783;86;20994;-77
2021/11/15 11:56:18;;;;;;;75.97;34.70;;;;;;;4.87;84.31;101452.20;2045437;86;21087;-76
2021/11/15 11:59:21;;;;;;;91.10;40.15;;;;;;;4.94;84.33;101453.48;2047974;86;21042;-76
2021/11/15 12:02:26;;;;;;;88.72;40.38;;;;;;;4.98;84.17;101450.65;2045927;86;21040;-76
2021/11/15 12:05:31;;;;;;;83.52;37.80;;;;;;;5.00;84.16;101452.25;2025802;86;21073;-76
2021/11/15 12:08:58;;;;;;;79.62;38.48;;;;;;;5.03;84.04;101455.98;2050491;86;21494;-77
2021/11/15 12:12:02;;;;;;;74.58;35.50;;;;;;;5.07;84.00;101457.98;2040332;86;21034;-75
2021/11/15 12:15:26;;;;;;;76.47;35.13;;;;;;;5.10;83.84;101457.30;2011220;86;21078;-75
2021/11/15 12:18:33;;;;;;;66.40;33.28;;;;;;;5.10;83.60;101450.72;2008502;86;21042;-79
2021/11/15 12:21:37;;;;;;;66.15;28.77;;;;;;;5.12;83.78;101448.84;2015559;86;21085;-80
2021/11/15 12:25:00;;;;;;;60.78;30.57;;;;;;;5.14;83.44;101447.41;2006618;86;21017;-74
2021/11/15 12:28:02;;;;;;;55.25;30.30;;;;;;;5.14;83.21;101448.25;2009375;86;21069;-75
2021/11/15 12:31:07;;;;;;;56.95;29.25;;;;;;;5.18;83.35;101454.19;2012220;86;21042;-75
2021/11/15 12:34:09;;;;;;;51.95;27.27;;;;;;;5.23;83.16;101453.87;2012054;86;21054;-75
2021/11/15 12:37:14;;;;;;;53.30;27.13;;;;;;;5.24;82.74;101455.09;2012787;86;20973;-74
2021/11/15 12:40:39;;;;;;;55.08;27.82;;;;;;;5.24;82.78;101452.94;2006425;86;21565;-75
2021/11/15 12:43:41;;;;;;;51.70;26.82;;;;;;;5.25;82.79;101450.19;2012690;86;21101;-76
2021/11/15 12:47:15;;;;;;;54.75;25.80;;;;;;;5.26;82.49;101442.66;2014534;86;21018;-77
2021/11/15 12:50:24;;;;;;;56.15;27.40;;;;;;;5.26;82.53;101442.66;2018338;86;20996;-76
2021/11/15 12:53:26;;;;;;;50.67;26.07;;;;;;;5.26;82.33;101443.13;2013399;86;21010;-76
2021/11/15 12:56:29;;;;;;;56.53;28.23;;;;;;;5.25;82.38;101445.41;2012649;86;21842;-78
2021/11/15 12:59:36;;;;;;;53.25;27.17;;;;;;;5.27;82.36;101439.58;2011942;86;21485;-80
2021/11/15 13:02:38;;;;;;;54.42;28.20;;;;;;;5.27;82.26;101440.89;2012416;86;21510;-80
2021/11/15 13:05:42;;;;;;;52.10;27.82;;;;;;;5.27;82.27;101435.16;2009930;86;21053;-77
2021/11/15 13:08:46;;;;;;;54.65;27.93;;;;;;;5.27;82.16;101434.31;2016848;86;20991;-77
2021/11/15 13:11:50;;;;;;;45.50;23.52;;;;;;;5.26;81.94;101451.03;2007904;86;21022;-79
2021/11/15 13:14:51;;;;;;;49.15;26.77;;;;;;;5.25;81.93;101448.04;2010554;87;21585;-77
2021/11/15 13:17:54;;;;;;;54.90;26.17;;;;;;;5.22;81.94;101443.81;2011734;87;21075;-78
2021/11/15 13:20:58;;;;;;;46.75;26.55;;;;;;;5.23;82.01;101451.23;2010896;87;21034;-77
2021/11/15 13:23:59;;;;;;;48.45;25.72;;;;;;;5.26;82.09;101453.66;1982409;89;20994;-76
2021/11/15 13:27:01;;;;;;;53.23;28.07;;;;;;;5.27;81.98;101444.37;2011083;87;20987;-76
2021/11/15 13:30:09;;;;;;;53.15;28.10;;;;;;;5.27;82.03;101443.53;2015699;87;21427;-77
2021/11/15 13:33:10;;;;;;;50.83;28.20;;;;;;;5.26;82.02;101442.66;2013203;87;20999;-77
2021/11/15 13:36:12;;;;;;;60.17;28.62;;;;;;;5.24;82.15;101447.20;2010485;87;21147;-77
2021/11/15 13:39:14;;;;;;;57.40;29.30;;;;;;;5.22;82.34;101437.72;2013392;87;21427;-77
2021/11/15 13:42:16;;;;;;;48.85;24.60;;;;;;;5.16;82.37;101438.95;1975900;89;21097;-76
2021/11/15 13:45:18;;;;;;;59.95;30.77;;;;;;;5.11;82.62;101441.88;2009791;85;21012;-77
2021/11/15 13:48:22;;;;;;;53.52;29.37;;;;;;;5.06;82.86;101440.48;2009616;87;21015;-77
2021/11/15 13:51:23;;;;;;;45.85;26.48;;;;;;;5.03;82.97;101440.69;2012347;87;21053;-76
2021/11/15 13:54:26;;;;;;;53.52;26.90;;;;;;;5.02;83.24;101440.33;2014565;87;21041;-78
2021/11/15 13:57:29;;;;;;;52.98;27.42;;;;;;;5.00;83.27;101438.25;2012356;87;21059;-81
2021/11/15 14:00:31;;;;;;;55.90;29.63;;;;;;;4.98;83.50;101442.76;2015011;87;21011;-77
2021/11/15 14:03:36;;;;;;;52.67;26.97;;;;;;;4.91;83.54;101449.73;2015101;87;20971;-78
2021/11/15 14:06:41;;;;;;;55.70;31.37;;;;;;;4.88;83.84;101456.98;2011751;87;21058;-78
2021/11/15 14:09:44;;;;;;;52.20;28.67;;;;;;;4.82;83.94;101450.33;2010385;87;21107;-77
2021/11/15 14:12:46;;;;;;;60.17;31.48;;;;;;;4.80;84.07;101457.45;2021193;86;20987;-77
2021/11/15 14:15:49;;;;;;;53.70;29.75;;;;;;;4.75;84.36;101459.53;2041348;86;21883;-77
2021/11/15 14:18:51;;;;;;;57.05;30.85;;;;;;;4.73;84.39;101461.44;2046447;86;21004;-77
2021/11/15 14:21:52;;;;;;;56.20;31.23;;;;;;;4.71;84.55;101464.14;2044044;85;21033;-75
2021/11/15 14:24:54;;;;;;;57.20;29.80;;;;;;;4.72;84.64;101463.67;2045522;86;21616;-77
2021/11/15 14:27:56;;;;;;;58.68;31.48;;;;;;;4.73;84.71;101464.06;1988068;89;21026;-77
2021/11/15 14:30:57;;;;;;;59.80;31.87;;;;;;;4.71;85.12;101461.52;2010576;87;21073;-79
2021/11/15 14:33:59;;;;;;;66.65;34.00;;;;;;;4.68;84.99;101456.92;2008667;87;21032;-75
2021/11/15 14:37:01;;;;;;;73.30;35.60;;;;;;;4.69;85.18;101465.17;2013369;87;21089;-78
2021/11/15 14:40:05;;;;;;;68.95;35.68;;;;;;;4.68;85.22;101467.45;1998895;88;21084;-76
2021/11/15 14:43:08;;;;;;;69.60;35.85;;;;;;;4.67;85.28;101470.99;1979386;89;21086;-77
2021/11/15 14:46:10;;;;;;;75.67;37.28;;;;;;;4.69;85.31;101473.91;2010353;87;21008;-77
2021/11/15 14:49:12;;;;;;;65.80;33.28;;;;;;;4.72;85.30;101476.34;2014636;87;21033;-77
2021/11/15 14:52:16;;;;;;;78.62;36.45;;;;;;;4.73;85.34;101475.89;2049171;86;20984;-79
2021/11/15 14:55:20;;;;;;;66.02;35.58;;;;;;;4.74;85.36;101464.90;2050274;86;21034;-78
2021/11/15 14:58:22;;;;;;;72.47;36.88;;;;;;;4.72;85.41;101460.56;2046101;86;21007;-76
2021/11/15 15:01:24;;;;;;;74.15;38.28;;;;;;;4.72;85.48;101457.09;2044569;86;21083;-77
2021/11/15 15:04:25;;;;;;;74.12;35.98;;;;;;;4.72;85.48;101458.41;2043123;86;21050;-75
2021/11/15 15:07:27;;;;;;;83.27;39.30;;;;;;;4.74;85.48;101462.27;2043240;86;21752;-77
2021/11/15 15:10:29;;;;;;;72.70;35.75;;;;;;;4.72;85.53;101457.94;2043961;86;21057;-78
2021/11/15 15:13:34;;;;;;;71.00;33.95;;;;;;;4.74;85.58;101461.80;2040045;86;21520;-77
2021/11/15 15:16:35;;;;;;;74.27;37.20;;;;;;;4.74;85.58;101458.33;2026230;86;21600;-79
2021/11/15 15:19:48;;;;;;;77.85;37.00;;;;;;;4.73;85.56;101457.48;2025089;86;21025;-77
2021/11/15 15:22:40;;;;;;;85.53;41.77;;;;;;;4.75;85.68;101455.58;2017125;86;21037;-78
2021/11/15 15:25:41;;;;;;;80.10;39.65;;;;;;;4.76;85.64;101459.05;2022106;86;21057;-77
2021/11/15 15:28:43;;;;;;;81.87;41.10;;;;;;;4.75;85.70;101463.95;2027854;86;21032;-76
2021/11/15 15:31:45;;;;;;;77.47;38.92;;;;;;;4.74;85.88;101455.22;2017551;86;21145;-77
2021/11/15 15:34:47;;;;;;;78.45;39.55;;;;;;;4.76;85.69;101457.30;2023891;86;20979;-77
2021/11/15 15:37:48;;;;;;;75.30;36.98;;;;;;;4.74;85.61;101457.84;2021405;86;21866;-76
2021/11/15 15:40:52;;;;;;;72.55;37.70;;;;;;;4.75;85.66;101464.78;2031515;86;21029;-78
2021/11/15 15:43:54;;;;;;;66.17;34.10;;;;;;;4.76;85.64;101469.12;2023811;86;21008;-78
2021/11/15 15:46:57;;;;;;;69.75;35.08;;;;;;;4.76;85.65;101462.55;2022913;86;21022;-77
2021/11/15 15:49:59;;;;;;;74.60;36.68;;;;;;;4.75;85.67;101463.47;2025898;86;21734;-78
2021/11/15 15:53:02;;;;;;;77.95;38.58;;;;;;;4.74;85.62;101464.42;2023042;86;21512;-77
2021/11/15 15:56:04;;;;;;;70.30;36.70;;;;;;;4.76;85.68;101466.94;2026212;86;21029;-77
2021/11/15 15:59:06;;;;;;;81.30;39.60;;;;;;;4.78;85.71;101467.22;2025321;86;21608;-78
2021/11/15 16:02:08;;;;;;;76.25;38.55;;;;;;;4.80;85.73;101468.45;2026445;86;21437;-78
2021/11/15 16:05:48;;;;;;;81.40;39.88;;;;;;;4.80;85.65;101471.09;2020687;86;21074;-76
2021/11/15 16:18:08;;;;;;;89.43;40.77;;;;;;;4.91;85.60;101472.09;2052067;86;21053;-76
2021/11/15 16:21:00;;;;;;;86.60;40.95;;;;;;;4.89;85.54;101463.45;2029044;86;21071;-77
2021/11/15 16:24:05;;;;;;;76.53;39.23;;;;;;;4.86;85.58;101457.06;2055119;86;21087;-77
2021/11/15 16:27:07;;;;;;;83.15;40.63;;;;;;;4.87;85.59;101452.64;2050140;86;21015;-77
2021/11/15 16:30:13;;;;;;;79.87;40.33;;;;;;;4.81;85.56;101451.25;2044149;86;21027;-77
2021/11/15 16:33:14;;;;;;;85.90;40.58;;;;;;;4.77;85.61;101443.19;2045009;86;21038;-78
2021/11/15 16:36:17;;;;;;;78.65;39.98;;;;;;;4.78;85.72;101446.66;2045332;86;21398;-78
2021/11/15 16:39:19;;;;;;;79.62;38.83;;;;;;;4.75;85.69;101451.64;2051628;86;22744;-76
2021/11/15 16:42:21;;;;;;;81.42;39.18;;;;;;;4.76;85.81;101446.77;2051790;86;21074;-77
2021/11/15 16:45:23;;;;;;;82.75;40.30;;;;;;;4.74;85.79;101448.64;2048745;86;21020;-78
2021/11/15 16:48:24;;;;;;;84.42;39.30;;;;;;;4.73;85.81;101450.91;2050403;86;21002;-76
2021/11/15 16:51:26;;;;;;;81.37;39.20;;;;;;;4.72;85.83;101455.30;2050777;86;21053;-76
2021/11/15 16:54:29;;;;;;;79.07;39.25;;;;;;;4.75;85.89;101445.06;2048756;86;21049;-75
2021/11/15 16:57:31;;;;;;;84.28;40.00;;;;;;;4.74;85.89;101447.81;2041615;86;21013;-76
2021/11/15 17:00:40;;;;;;;81.87;39.35;;;;;;;4.73;85.88;101448.28;2048126;86;21122;-76
2021/11/15 17:03:42;;;;;;;82.65;39.03;;;;;;;4.72;85.94;101443.47;2047048;86;21029;-77
2021/11/15 17:06:44;;;;;;;88.97;42.38;;;;;;;4.77;86.05;101441.88;2044832;86;20990;-77
2021/11/15 17:09:48;;;;;;;86.50;41.80;;;;;;;4.76;85.99;101438.88;2046884;86;21029;-74
2021/11/15 17:12:49;;;;;;;98.90;44.50;;;;;;;4.77;86.02;101448.45;2042865;86;21007;-76
2021/11/15 17:15:53;;;;;;;96.05;46.18;;;;;;;4.75;86.08;101458.21;2010920;86;21066;-75
2021/11/15 17:18:56;;;;;;;96.60;43.95;;;;;;;4.75;86.12;101457.37;2011052;86;20972;-75
2021/11/15 17:21:58;;;;;;;90.97;40.28;;;;;;;4.74;86.11;101459.64;2013689;86;21530;-74
2021/11/15 17:25:01;;;;;;;82.53;40.25;;;;;;;4.73;86.15;101453.55;2009627;86;21043;-74
2021/11/15 17:28:03;;;;;;;102.25;45.25;;;;;;;4.73;86.19;101460.12;2012188;86;20976;-73
2021/11/15 17:31:05;;;;;;;90.20;42.10;;;;;;;4.74;86.23;101459.64;2018330;86;21084;-74
2021/11/15 17:34:07;;;;;;;88.60;41.13;;;;;;;4.78;86.27;101459.81;2009412;86;21506;-76
2021/11/15 17:37:09;;;;;;;102.87;42.73;;;;;;;4.76;86.24;101445.46;2011998;86;21594;-75
2021/11/15 17:40:12;;;;;;;91.85;40.70;;;;;;;4.75;86.22;101452.12;2017456;86;21068;-77
2021/11/15 17:43:18;;;;;;;91.57;43.17;;;;;;;4.74;86.16;101447.81;2016370;86;21035;-76
2021/11/15 17:46:21;;;;;;;93.03;41.88;;;;;;;4.75;86.26;101448.17;2016478;86;21113;-77
2021/11/15 17:49:24;;;;;;;94.75;41.50;;;;;;;4.77;86.30;101446.30;2018266;86;21638;-73
2021/11/15 17:52:31;;;;;;;93.25;41.10;;;;;;;4.76;86.22;101450.72;2016748;86;21013;-73
2021/11/15 17:58:48;;;;;;;89.65;42.62;;;;;;;4.77;86.30;101443.66;2023414;86;21041;-73
2021/11/15 18:01:52;;;;;;;96.30;43.53;;;;;;;4.77;86.27;101443.19;2022581;86;21003;-75
2021/11/15 18:04:54;;;;;;;89.72;40.58;;;;;;;4.77;86.21;101443.19;2022459;86;21106;-74
2021/11/15 18:07:55;;;;;;;99.60;45.20;;;;;;;4.78;86.28;101437.45;2021367;86;21472;-75
2021/11/15 18:10:57;;;;;;;90.17;41.42;;;;;;;4.79;86.24;101442.63;2019524;86;21007;-77
2021/11/15 18:14:10;;;;;;;90.87;41.08;;;;;;;4.82;86.32;101435.86;2017160;86;21015;-76
2021/11/15 18:17:08;;;;;;;89.95;42.48;;;;;;;4.82;86.23;101441.13;2013621;86;21054;-75
2021/11/15 18:20:11;;;;;;;94.30;45.15;;;;;;;4.83;86.20;101438.02;2022387;86;21011;-76
2021/11/15 18:23:13;;;;;;;95.72;43.78;;;;;;;4.84;86.21;101440.56;2024740;86;20983;-76
2021/11/15 18:26:17;;;;;;;98.78;45.38;;;;;;;4.85;86.18;101440.92;2020705;86;21528;-76
2021/11/15 18:29:18;;;;;;;103.15;45.50;;;;;;;4.88;86.22;101437.25;2017770;86;21054;-77
2021/11/15 18:32:22;;;;;;;103.83;45.88;;;;;;;4.92;86.23;101435.62;2018785;86;21768;-75
2021/11/15 18:35:24;;;;;;;101.30;44.75;;;;;;;4.98;86.21;101437.50;2022866;86;21118;-77
2021/11/15 18:38:27;;;;;;;106.15;45.03;;;;;;;5.01;86.10;101434.67;2020574;86;21555;-74
2021/11/15 18:41:29;;;;;;;97.12;43.90;;;;;;;5.02;86.02;101433.75;2020960;86;21588;-77
2021/11/15 18:44:34;;;;;;;96.75;43.00;;;;;;;4.99;85.94;101441.36;2020516;86;21090;-74
2021/11/15 18:47:34;;;;;;;100.60;44.95;;;;;;;5.02;86.00;101441.64;2017048;86;21047;-74
2021/11/15 18:50:36;;;;;;;100.10;45.03;;;;;;;4.99;85.89;101429.52;2023168;86;21022;-75
2021/11/15 18:53:39;;;;;;;84.05;39.50;;;;;;;5.02;85.93;101443.79;2018526;86;21551;-74
2021/11/15 18:56:41;;;;;;;97.60;43.68;;;;;;;5.03;85.90;101438.05;2022550;86;21042;-76
2021/11/15 18:59:42;;;;;;;90.32;42.95;;;;;;;5.03;85.80;101439.37;2017139;86;21461;-74
2021/11/15 19:02:45;;;;;;;84.32;41.53;;;;;;;5.02;85.81;101439.00;2023545;86;21023;-73
2021/11/15 19:05:51;;;;;;;96.90;43.65;;;;;;;4.99;85.77;101440.52;2023195;86;20999;-74
2021/11/15 19:09:00;;;;;;;91.30;43.20;;;;;;;5.00;85.81;101437.78;2022621;86;21067;-74
2021/11/15 19:12:01;;;;;;;92.40;45.05;;;;;;;5.00;85.82;101437.78;2016039;86;21470;-73
2021/11/15 19:14:59;;;;;;;101.55;46.45;;;;;;;5.00;85.73;101436.46;2026019;86;20984;-76
2021/11/15 19:18:03;;;;;;;94.37;44.30;;;;;;;5.02;85.70;101429.80;2024396;86;21074;-76
2021/11/15 19:21:04;;;;;;;84.50;41.63;;;;;;;5.04;85.69;101435.78;2023812;86;21065;-77
2021/11/15 19:24:07;;;;;;;101.20;44.45;;;;;;;5.05;85.62;101429.60;2021823;86;21053;-76
2021/11/15 19:27:08;;;;;;;84.67;40.43;;;;;;;5.04;85.64;101435.34;2018226;86;21015;-75
2021/11/15 19:30:13;;;;;;;91.97;45.60;;;;;;;5.07;85.61;101436.45;2025995;86;21066;-75
2021/11/15 19:33:15;;;;;;;85.72;40.52;;;;;;;5.11;85.64;101437.93;2023697;86;21556;-78
2021/11/15 19:36:17;;;;;;;87.85;42.30;;;;;;;5.12;85.44;101445.34;2013683;86;21502;-77
2021/11/15 19:39:22;;;;;;;88.40;43.08;;;;;;;5.08;85.38;101443.39;1993282;88;21089;-76
2021/11/15 19:42:24;;;;;;;85.80;40.23;;;;;;;5.05;85.38;101435.70;2021000;86;21056;-77
2021/11/15 19:45:27;;;;;;;89.72;44.45;;;;;;;5.07;85.39;101433.82;2014259;86;20970;-77
2021/11/15 19:48:29;;;;;;;90.05;41.85;;;;;;;5.08;85.36;101439.92;2018739;86;21029;-76
2021/11/15 19:51:32;;;;;;;83.12;40.75;;;;;;;5.11;85.36;101432.66;2014455;86;21057;-75
2021/11/15 19:54:34;;;;;;;86.72;42.53;;;;;;;5.10;85.22;101432.78;2020124;86;21726;-76
2021/11/15 19:57:36;;;;;;;86.05;43.50;;;;;;;5.11;85.21;101437.09;2012940;86;20966;-77
2021/11/15 20:00:42;;;;;;;77.97;39.05;;;;;;;5.13;85.20;101433.90;2014741;86;21021;-76
2021/11/15 20:03:44;;;;;;;90.42;42.93;;;;;;;5.13;85.05;101433.42;2022176;86;21046;-77
2021/11/15 20:06:46;;;;;;;83.17;42.13;;;;;;;5.10;85.01;101430.16;2020101;86;21494;-76
2021/11/15 20:09:49;;;;;;;86.78;42.62;;;;;;;5.08;85.04;101426.29;2026402;86;21524;-76
2021/11/15 20:12:51;;;;;;;82.67;40.88;;;;;;;5.10;85.07;101424.41;2025621;86;20984;-77
2021/11/15 20:15:53;;;;;;;83.85;40.83;;;;;;;5.13;85.03;101425.52;2022209;86;21054;-76
2021/11/15 20:18:55;;;;;;;83.52;42.33;;;;;;;5.13;84.98;101419.42;2009362;86;21512;-77
2021/11/15 20:21:56;;;;;;;83.47;39.88;;;;;;;5.19;84.98;101421.65;2013880;86;21043;-77
2021/11/15 20:24:59;;;;;;;86.87;41.77;;;;;;;5.23;84.93;101422.28;2010016;86;21562;-76
2021/11/15 20:28:01;;;;;;;85.83;40.92;;;;;;;5.25;84.87;101419.09;2010369;86;21533;-74
2021/11/15 20:31:05;;;;;;;85.75;43.35;;;;;;;5.25;84.78;101413.34;2022332;86;21557;-75
2021/11/15 20:34:07;;;;;;;81.97;41.08;;;;;;;5.26;84.81;101423.40;1959026;89;21502;-75
2021/11/15 20:37:09;;;;;;;82.95;41.20;;;;;;;5.29;84.77;101425.83;1957586;89;20959;-78
2021/11/15 20:40:13;;;;;;;83.55;40.75;;;;;;;5.26;84.60;101426.87;1968020;89;21500;-76
2021/11/15 20:43:19;;;;;;;81.35;38.13;;;;;;;5.26;84.66;101416.34;2015105;86;21542;-77
2021/11/15 20:46:20;;;;;;;83.55;41.58;;;;;;;5.29;84.62;101412.67;2015849;86;21058;-76
2021/11/15 20:49:24;;;;;;;78.42;42.58;;;;;;;5.30;84.54;101413.90;2012234;86;21003;-75
2021/11/15 20:52:25;;;;;;;81.72;41.23;;;;;;;5.32;84.57;101413.33;2022711;86;21077;-76
2021/11/15 20:55:28;;;;;;;91.50;43.25;;;;;;;5.36;84.53;101412.65;2017368;86;21043;-77
2021/11/15 20:58:30;;;;;;;85.28;43.15;;;;;;;5.35;84.39;101411.81;2015698;86;21025;-76
2021/11/15 21:01:32;;;;;;;86.28;43.65;;;;;;;5.36;84.33;101412.17;2016637;86;21333;-76
2021/11/15 21:04:33;;;;;;;97.85;46.08;;;;;;;5.38;84.37;101416.87;2013626;86;21667;-77
2021/11/15 21:07:35;;;;;;;93.10;46.00;;;;;;;5.38;84.26;101416.87;2012201;86;21054;-78
2021/11/15 21:10:38;;;;;;;92.20;44.27;;;;;;;5.37;84.24;101407.27;2016571;86;21699;-77
2021/11/15 21:13:45;;;;;;;88.95;43.48;;;;;;;5.35;84.19;101406.55;1974027;88;20994;-77
2021/11/15 21:16:47;;;;;;;92.97;46.50;;;;;;;5.34;84.13;101406.63;1986680;87;21154;-75
2021/11/15 21:19:51;;;;;;;98.20;46.15;;;;;;;5.33;84.10;101402.33;1958055;89;21475;-77
2021/11/15 21:23:04;;;;;;;90.97;44.98;;;;;;;5.32;84.09;101397.54;2009698;86;21084;-79
2021/11/15 21:25:56;;;;;;;93.35;46.13;;;;;;;5.35;84.09;101393.39;2016091;86;21053;-77
2021/11/15 21:29:00;;;;;;;86.45;44.50;;;;;;;5.36;84.07;101386.33;2011227;86;20986;-78